Time;durP1;ratioP1;P1;durP2;ratioP2;P2;SDS_P1;SDS_P2;PMS_P1;PMS_P2;Temp;Humidity;BMP_temperature;BMP_pressure;BME280_temperature;BME280_humidity;BME280_pressure;Samples;Min_cycle;Max_cycle;Signal;HPM_P1;HPM_P2
2022/06/09 00:00:46;;;;;;;2.75;2.03;;;;;;;20.64;53.04;100673.53;5119788;28;20063;-63
2022/06/09 00:03:17;;;;;;;4.63;2.47;;;;;;;20.64;53.32;100674.38;5089290;28;20428;-63
2022/06/09 00:05:42;;;;;;;5.10;2.05;;;;;;;20.64;53.04;100668.13;5107490;28;20059;-64
2022/06/09 00:08:08;;;;;;;3.45;1.83;;;;;;;20.64;53.09;100670.84;5088809;28;20766;-62
2022/06/09 00:10:39;;;;;;;3.80;1.80;;;;;;;20.64;53.11;100676.25;5096026;28;20460;-62
2022/06/09 00:13:05;;;;;;;5.70;2.50;;;;;;;20.64;53.35;100673.53;5115002;28;20024;-63
2022/06/09 00:15:30;;;;;;;4.13;2.22;;;;;;;20.60;53.06;100670.41;5106879;28;20070;-63
2022/06/09 00:17:56;;;;;;;4.72;2.40;;;;;;;20.62;52.98;100679.13;5107124;28;20024;-63
2022/06/09 00:20:21;;;;;;;4.22;2.35;;;;;;;20.57;53.33;100678.03;5088686;28;20092;-63
2022/06/09 00:22:46;;;;;;;4.80;2.00;;;;;;;20.62;53.21;100686.41;5111635;28;20103;-63
2022/06/09 00:25:12;;;;;;;4.13;2.03;;;;;;;20.62;53.26;100683.72;5127236;28;20028;-63
2022/06/09 00:27:38;;;;;;;5.72;2.15;;;;;;;20.61;53.32;100685.56;5126716;28;20027;-63
2022/06/09 00:30:06;;;;;;;5.07;2.28;;;;;;;20.58;53.00;100682.41;5127048;28;20091;-63
2022/06/09 00:32:31;;;;;;;3.90;2.10;;;;;;;20.60;53.18;100677.63;5127405;28;20035;-64
2022/06/09 00:34:56;;;;;;;4.70;1.98;;;;;;;20.59;53.15;100674.09;5127032;28;20107;-64
2022/06/09 00:37:22;;;;;;;5.47;2.05;;;;;;;20.40;52.90;100647.63;5126876;28;20023;-63
2022/06/09 00:39:47;;;;;;;5.57;2.42;;;;;;;20.59;53.18;100690.31;5126576;28;20024;-63
2022/06/09 00:42:12;;;;;;;5.15;2.03;;;;;;;20.59;52.81;100700.28;5126445;28;20595;-63
2022/06/09 00:44:38;;;;;;;3.72;1.73;;;;;;;20.58;52.73;100694.03;5127047;28;20023;-63
2022/06/09 00:47:17;;;;;;;4.07;1.73;;;;;;;20.58;53.19;100694.03;5126999;28;20028;-63
2022/06/09 00:49:57;;;;;;;3.15;1.75;;;;;;;20.57;52.94;100696.94;5126691;28;20027;-62
2022/06/09 00:52:23;;;;;;;4.10;1.75;;;;;;;20.57;53.32;100705.88;5126700;28;20038;-63
2022/06/09 00:54:52;;;;;;;3.50;1.88;;;;;;;20.58;52.96;100706.72;5088504;28;20039;-62
2022/06/09 00:57:22;;;;;;;7.07;2.45;;;;;;;20.58;52.88;100709.41;5105997;28;20213;-62
2022/06/09 00:59:51;;;;;;;4.78;2.00;;;;;;;20.39;53.03;100679.19;5087325;28;20028;-62
2022/06/09 01:02:18;;;;;;;3.65;1.80;;;;;;;20.57;52.75;100713.16;5108454;28;20501;-62
2022/06/09 01:04:45;;;;;;;5.63;2.13;;;;;;;20.56;53.00;100720.41;5118853;28;20027;-64
2022/06/09 01:07:14;;;;;;;3.72;2.00;;;;;;;20.56;52.78;100719.53;5120213;28;20564;-62
2022/06/09 01:09:39;;;;;;;;;;;;;;;20.55;52.92;100720.56;5126678;28;20038;-63
2022/06/09 01:12:29;;;;;;;5.75;2.35;;;;;;;20.55;52.68;100731.38;5107656;28;19908;-63
2022/06/09 01:14:59;;;;;;;6.35;2.28;;;;;;;20.54;52.64;100730.53;5106004;28;20028;-63
2022/06/09 01:17:34;;;;;;;4.32;1.95;;;;;;;20.53;52.88;100728.88;5071302;28;20405;-63
2022/06/09 01:20:09;;;;;;;3.63;2.28;;;;;;;20.51;52.98;100728.19;5100597;28;20073;-63
2022/06/09 01:22:50;;;;;;;7.20;2.00;;;;;;;20.38;52.90;100709.06;5106863;28;20035;-63
2022/06/09 01:25:38;;;;;;;3.00;2.25;;;;;;;20.52;53.01;100743.41;5087850;28;20035;-63
2022/06/09 01:28:28;;;;;;;4.45;1.83;;;;;;;20.51;52.69;100740.88;5087536;28;20024;-63
2022/06/09 01:31:03;;;;;;;5.30;1.73;;;;;;;20.51;52.63;100741.72;5105786;28;20024;-63
2022/06/09 01:33:34;;;;;;;3.80;1.90;;;;;;;20.51;52.92;100749.81;5105739;28;20035;-64
2022/06/09 01:36:15;;;;;;;4.38;1.92;;;;;;;20.48;52.65;100747.50;5091291;28;20026;-62
2022/06/09 01:38:45;;;;;;;3.05;1.90;;;;;;;20.50;52.83;100736.50;5107547;28;20023;-63
2022/06/09 01:41:10;;;;;;;5.05;2.53;;;;;;;20.50;52.75;100753.53;5125224;28;20050;-63
2022/06/09 01:43:36;;;;;;;8.30;2.70;;;;;;;20.50;53.00;100752.69;5125780;28;20404;-64
2022/06/09 01:46:06;;;;;;;4.55;1.80;;;;;;;20.50;52.81;100752.69;5107754;28;20032;-63
2022/06/09 01:48:32;;;;;;;3.65;1.98;;;;;;;20.41;53.08;100739.25;5107730;28;20124;-63
2022/06/09 01:51:01;;;;;;;3.08;1.60;;;;;;;20.49;52.71;100756.44;5107762;28;20484;-63
2022/06/09 01:53:32;;;;;;;5.25;1.60;;;;;;;20.49;52.69;100751.88;5106337;28;20058;-63
2022/06/09 01:56:19;;;;;;;3.05;1.52;;;;;;;20.48;52.74;100750.19;5106757;28;20078;-63
2022/06/09 01:58:48;;;;;;;3.70;2.08;;;;;;;20.47;52.65;100760.13;5107730;28;20023;-64
2022/06/09 02:01:15;;;;;;;3.05;1.55;;;;;;;20.44;52.76;100752.38;5107572;28;20095;-63
2022/06/09 02:03:44;;;;;;;4.00;1.65;;;;;;;20.39;52.70;100748.53;5107447;28;20030;-63
2022/06/09 02:06:10;;;;;;;4.82;1.90;;;;;;;20.47;52.65;100757.44;5093733;28;20040;-63
2022/06/09 02:08:36;;;;;;;2.83;1.65;;;;;;;20.47;52.96;100767.38;5086995;28;20028;-63
2022/06/09 02:11:08;;;;;;;4.03;1.95;;;;;;;20.46;52.60;100769.22;5100455;28;20027;-63
2022/06/09 02:13:39;;;;;;;6.30;2.15;;;;;;;20.46;52.66;100771.09;5111756;28;20050;-63
2022/06/09 02:16:06;;;;;;;6.45;2.78;;;;;;;20.45;52.78;100778.38;5129782;28;20034;-63
2022/06/09 02:18:36;;;;;;;5.05;1.80;;;;;;;20.44;52.97;100783.97;5094456;28;20015;-63
2022/06/09 02:21:07;;;;;;;4.43;1.70;;;;;;;20.43;52.78;100774.16;5129830;28;20057;-63
2022/06/09 02:23:32;;;;;;;5.60;1.90;;;;;;;20.45;52.91;100775.66;5093715;28;20027;-63
2022/06/09 02:25:57;;;;;;;2.80;1.60;;;;;;;20.45;52.63;100781.06;5129241;28;20042;-63
2022/06/09 02:28:23;;;;;;;8.07;2.20;;;;;;;20.44;52.92;100781.25;5129410;28;20024;-64
2022/06/09 02:30:48;;;;;;;3.25;1.85;;;;;;;20.35;52.83;100763.44;5129531;28;20019;-64
2022/06/09 02:33:14;;;;;;;5.60;1.98;;;;;;;20.44;52.89;100782.09;5129679;28;20027;-64
2022/06/09 02:35:41;;;;;;;4.97;1.98;;;;;;;20.44;52.46;100779.41;5129598;28;20028;-64
2022/06/09 02:38:07;;;;;;;4.57;1.85;;;;;;;20.43;52.58;100791.22;5129394;28;20038;-63
2022/06/09 02:40:33;;;;;;;3.00;1.60;;;;;;;20.43;52.71;100788.53;5129057;28;20043;-63
2022/06/09 02:42:58;;;;;;;5.13;1.80;;;;;;;20.43;52.60;100788.53;5110608;28;20066;-64
2022/06/09 02:45:23;;;;;;;3.85;1.80;;;;;;;20.43;52.58;100795.75;5129278;28;20031;-64
2022/06/09 02:47:49;;;;;;;4.85;2.00;;;;;;;20.41;52.61;100793.25;5129120;28;20047;-64
2022/06/09 02:50:15;;;;;;;3.65;1.80;;;;;;;20.42;52.19;100800.31;5129056;28;20027;-64
2022/06/09 02:52:43;;;;;;;5.35;2.67;;;;;;;20.39;52.74;100795.31;5122665;28;20056;-64
2022/06/09 02:55:10;;;;;;;4.80;2.28;;;;;;;20.42;52.52;100803.03;5108542;28;20043;-64
2022/06/09 02:57:35;;;;;;;4.07;1.65;;;;;;;20.41;52.47;100793.25;5108325;28;20095;-63
2022/06/09 03:00:01;;;;;;;3.55;1.70;;;;;;;20.40;52.63;100799.69;5108492;28;20027;-64
2022/06/09 03:02:26;;;;;;;5.47;2.20;;;;;;;20.41;52.39;100798.66;5108409;28;20032;-64
2022/06/09 03:04:51;;;;;;;5.60;1.88;;;;;;;20.39;52.66;100794.44;5090300;28;20050;-64
2022/06/09 03:07:17;;;;;;;4.40;2.20;;;;;;;20.41;52.34;100800.50;5108724;28;20537;-64
2022/06/09 03:09:42;;;;;;;4.32;1.80;;;;;;;20.39;52.63;100792.59;5108583;28;20028;-63
2022/06/09 03:12:09;;;;;;;4.10;2.00;;;;;;;20.32;52.41;100791.63;5128303;28;20057;-64
2022/06/09 03:14:35;;;;;;;3.22;1.65;;;;;;;20.39;52.61;100811.50;5110992;28;20148;-64
2022/06/09 03:17:00;;;;;;;4.15;2.00;;;;;;;20.30;52.44;100796.38;5128706;28;20492;-64
2022/06/09 03:19:26;;;;;;;5.40;1.80;;;;;;;20.36;52.26;100817.25;5128594;28;20019;-63
2022/06/09 03:21:51;;;;;;;4.70;1.95;;;;;;;20.32;52.21;100801.59;5127605;28;20437;-64
2022/06/09 03:24:17;;;;;;;4.40;2.20;;;;;;;20.37;52.44;100829.72;5118265;28;20039;-64
2022/06/09 03:26:42;;;;;;;2.78;1.63;;;;;;;20.38;52.25;100838.66;5107831;28;20024;-64
2022/06/09 03:29:08;;;;;;;5.10;1.98;;;;;;;20.38;52.62;100835.97;5089981;28;20036;-63
2022/06/09 03:31:33;;;;;;;4.25;1.67;;;;;;;20.37;52.19;100843.22;5108104;28;20024;-64
2022/06/09 03:33:58;;;;;;;5.53;2.00;;;;;;;20.36;52.19;100846.97;5108002;28;20039;-63
2022/06/09 03:36:24;;;;;;;5.70;2.13;;;;;;;20.36;52.40;100846.97;5107830;28;20554;-63
2022/06/09 03:38:49;;;;;;;3.33;1.77;;;;;;;20.37;52.50;100853.19;5107648;28;20023;-63
2022/06/09 03:41:14;;;;;;;3.90;2.28;;;;;;;20.36;52.42;100852.38;5106914;28;20052;-63
2022/06/09 03:43:40;;;;;;;3.58;1.67;;;;;;;20.33;52.29;100850.00;5107564;28;20027;-64
2022/06/09 03:46:05;;;;;;;5.32;2.25;;;;;;;20.35;52.35;100861.50;5107770;28;20020;-63
2022/06/09 03:48:30;;;;;;;5.65;2.97;;;;;;;20.35;52.45;100856.09;5107557;28;20031;-64
2022/06/09 03:50:56;;;;;;;3.42;1.95;;;;;;;20.34;52.35;100862.50;5107568;28;20028;-63
2022/06/09 03:53:21;;;;;;;4.45;2.20;;;;;;;20.34;52.47;100867.88;5089352;28;20024;-64
2022/06/09 03:55:47;;;;;;;5.38;1.83;;;;;;;20.34;52.01;100873.28;5107061;28;20062;-63
2022/06/09 03:58:12;;;;;;;4.20;1.80;;;;;;;20.33;52.23;100877.00;5107458;28;20024;-63
2022/06/09 04:00:38;;;;;;;4.38;1.80;;;;;;;20.32;52.17;100875.34;5107542;28;20024;-64
2022/06/09 04:03:04;;;;;;;4.15;1.80;;;;;;;20.33;52.48;100870.78;5107509;28;20028;-63
2022/06/09 04:05:30;;;;;;;5.68;2.20;;;;;;;20.23;52.12;100866.47;5089226;28;20419;-63
2022/06/09 04:07:56;;;;;;;3.75;1.67;;;;;;;20.31;52.11;100879.06;5107256;28;20031;-63
2022/06/09 04:10:30;;;;;;;3.35;1.58;;;;;;;20.32;52.34;100894.25;5094556;28;20031;-64
2022/06/09 04:12:57;;;;;;;7.25;2.05;;;;;;;20.32;52.30;100890.72;5126376;28;20026;-63
2022/06/09 04:15:22;;;;;;;2.90;1.75;;;;;;;20.31;52.15;100891.72;5127597;28;20043;-63
2022/06/09 04:17:48;;;;;;;3.10;1.80;;;;;;;20.24;52.28;100878.09;5109120;28;20034;-63
2022/06/09 04:20:16;;;;;;;5.25;1.92;;;;;;;20.30;51.91;100898.13;5109009;28;20016;-63
2022/06/09 04:22:41;;;;;;;4.93;1.75;;;;;;;20.31;52.34;100902.53;5127612;28;20019;-63
2022/06/09 04:25:07;;;;;;;6.45;2.20;;;;;;;20.30;52.24;100901.66;5109148;28;20026;-64
2022/06/09 04:27:32;;;;;;;4.72;1.80;;;;;;;20.29;52.36;100891.91;5127128;28;20514;-63
2022/06/09 04:29:58;;;;;;;5.32;1.80;;;;;;;20.29;52.10;100905.38;5109112;28;20059;-63
2022/06/09 04:32:24;;;;;;;5.63;1.70;;;;;;;20.29;51.72;100905.38;5127308;28;20039;-63
2022/06/09 04:34:49;;;;;;;3.20;1.65;;;;;;;20.28;52.19;100911.81;5127165;28;20045;-63
2022/06/09 04:37:15;;;;;;;2.83;1.63;;;;;;;20.28;51.86;100909.13;5127162;28;20472;-63
2022/06/09 04:39:41;;;;;;;3.78;1.60;;;;;;;20.29;52.15;100921.59;5126827;28;20016;-63
2022/06/09 04:42:07;;;;;;;3.75;1.58;;;;;;;20.26;52.11;100915.69;5127088;28;20054;-63
2022/06/09 04:44:32;;;;;;;4.30;1.50;;;;;;;20.28;51.58;100925.31;5111810;28;20488;-63
2022/06/09 04:46:57;;;;;;;3.78;2.20;;;;;;;20.27;52.14;100926.34;5106750;28;20032;-64
2022/06/09 04:49:23;;;;;;;4.38;2.05;;;;;;;20.27;52.20;100929.03;5107019;28;20079;-63
2022/06/09 04:51:48;;;;;;;3.97;2.20;;;;;;;20.27;52.12;100937.16;5106437;28;20024;-63
2022/06/09 04:54:13;;;;;;;4.72;2.10;;;;;;;20.27;52.08;100931.75;5106576;28;20043;-63
2022/06/09 04:56:38;;;;;;;4.53;1.80;;;;;;;20.27;52.12;100939.00;5106167;28;20027;-63
2022/06/09 04:59:04;;;;;;;4.28;1.92;;;;;;;20.27;51.86;100949.81;5106529;28;20020;-63
2022/06/09 05:01:30;;;;;;;3.47;1.67;;;;;;;20.26;52.15;100948.94;5106265;28;20032;-63
2022/06/09 05:03:56;;;;;;;3.78;1.42;;;;;;;20.26;52.24;100951.63;5106138;28;20035;-63
2022/06/09 05:06:22;;;;;;;4.18;1.77;;;;;;;20.25;52.27;100955.34;5108239;28;20026;-63
2022/06/09 05:08:49;;;;;;;4.70;1.75;;;;;;;20.23;52.14;100952.84;5108397;28;20042;-63
2022/06/09 05:11:14;;;;;;;4.10;1.30;;;;;;;20.25;52.13;100968.03;5125880;28;20467;-63
2022/06/09 05:13:40;;;;;;;3.22;1.50;;;;;;;20.24;51.96;100967.19;5113663;28;20032;-63
2022/06/09 05:16:05;;;;;;;4.32;2.25;;;;;;;20.25;52.06;100970.72;5106105;28;20046;-63
2022/06/09 05:18:32;;;;;;;2.25;1.40;;;;;;;20.23;52.09;100968.22;5105840;28;20032;-63
2022/06/09 05:20:58;;;;;;;2.67;1.30;;;;;;;20.19;52.19;100967.72;5087426;28;20054;-63
2022/06/09 05:23:24;;;;;;;4.60;1.60;;;;;;;20.18;52.10;100963.34;5106133;28;20016;-63
2022/06/09 05:25:51;;;;;;;4.40;1.65;;;;;;;20.23;52.16;100969.03;5105460;28;20562;-63
2022/06/09 05:28:18;;;;;;;3.17;1.45;;;;;;;20.23;52.07;100977.16;5105522;28;20035;-63
2022/06/09 05:30:44;;;;;;;5.68;1.67;;;;;;;20.23;52.19;100981.72;5105791;28;20031;-66
2022/06/09 05:33:09;;;;;;;3.58;1.50;;;;;;;20.22;51.78;100978.16;5105741;28;20091;-63
2022/06/09 05:35:34;;;;;;;3.78;1.40;;;;;;;20.22;52.25;100988.97;5105668;28;20044;-63
2022/06/09 05:46:23;;;;;;;3.88;1.38;;;;;;;20.08;52.58;100970.78;5061970;28;20059;-63
2022/06/09 05:48:49;;;;;;;2.25;1.25;;;;;;;20.20;52.44;101001.78;5062706;28;20029;-63
2022/06/09 05:51:15;;;;;;;3.80;1.23;;;;;;;20.20;52.51;100999.09;5062500;28;20033;-64
2022/06/09 05:53:41;;;;;;;2.28;1.30;;;;;;;20.19;52.64;101000.09;5062871;28;20044;-64
2022/06/09 05:56:07;;;;;;;4.88;1.60;;;;;;;20.19;52.28;101012.78;5062352;28;20048;-63
2022/06/09 05:58:33;;;;;;;2.83;1.40;;;;;;;20.20;52.54;101019.84;5062348;28;20063;-63
2022/06/09 06:01:02;;;;;;;3.33;1.63;;;;;;;20.19;52.30;101024.41;5062990;28;20136;-64
2022/06/09 06:03:27;;;;;;;3.13;1.30;;;;;;;20.17;52.29;101025.59;5062406;28;20029;-64
2022/06/09 06:08:37;;;;;;;3.42;1.45;;;;;;;20.20;52.58;101041.44;5062370;28;20028;-63
2022/06/09 06:11:02;;;;;;;3.42;1.50;;;;;;;20.12;52.34;101044.16;5050348;28;20041;-61
2022/06/09 06:13:27;;;;;;;3.15;1.42;;;;;;;20.19;52.55;101059.50;5042488;28;20061;-64
2022/06/09 06:15:52;;;;;;;3.47;1.35;;;;;;;20.19;52.76;101061.38;5042392;28;20747;-63
2022/06/09 06:18:18;;;;;;;5.13;1.80;;;;;;;20.12;52.65;101049.56;5100052;28;20051;-64
2022/06/09 06:20:43;;;;;;;2.70;1.40;;;;;;;20.16;52.86;101067.09;5105019;28;20180;-64
2022/06/09 06:23:08;;;;;;;4.40;1.35;;;;;;;20.19;52.83;101078.41;5104929;28;20042;-64
2022/06/09 06:25:34;;;;;;;3.97;1.13;;;;;;;20.18;53.00;101076.72;5105081;28;20412;-63
2022/06/09 06:27:59;;;;;;;3.78;1.35;;;;;;;20.20;52.92;101076.53;5104387;28;20115;-64
2022/06/09 06:30:25;;;;;;;5.40;1.70;;;;;;;20.19;52.71;101082.97;5105220;28;20035;-64
2022/06/09 06:32:50;;;;;;;3.67;1.27;;;;;;;20.20;52.71;101087.34;5104803;28;20032;-64
2022/06/09 06:35:16;;;;;;;3.97;1.60;;;;;;;20.19;52.71;101089.19;5105131;28;20028;-64
2022/06/09 06:37:41;;;;;;;1.92;1.00;;;;;;;20.20;52.89;101090.03;5105038;28;20032;-64
2022/06/09 06:40:09;;;;;;;3.53;1.20;;;;;;;20.20;52.86;101104.38;5104503;28;20067;-64
2022/06/09 06:42:35;;;;;;;2.25;1.13;;;;;;;20.21;52.96;101102.50;5104389;28;20046;-64
2022/06/09 06:45:00;;;;;;;2.60;1.17;;;;;;;20.20;52.69;101104.38;5104795;28;20032;-64
2022/06/09 06:47:25;;;;;;;3.92;1.30;;;;;;;20.20;52.91;101104.38;5105003;28;20032;-63
2022/06/09 06:49:51;;;;;;;3.80;1.20;;;;;;;20.21;52.99;101113.31;5104864;28;20534;-64
2022/06/09 06:52:16;;;;;;;2.22;1.27;;;;;;;20.20;52.99;101112.47;5104716;28;20024;-64
2022/06/09 06:54:41;;;;;;;4.43;1.30;;;;;;;20.21;52.98;101118.72;5104854;28;20020;-64
2022/06/09 06:57:08;;;;;;;2.88;0.98;;;;;;;20.21;53.19;101129.50;5105998;28;20051;-63
2022/06/09 06:59:33;;;;;;;2.95;1.02;;;;;;;20.21;53.33;101119.56;5108601;28;20024;-62
2022/06/09 07:01:59;;;;;;;2.92;1.17;;;;;;;20.21;52.86;101130.34;5090034;28;20034;-64
2022/06/09 07:04:24;;;;;;;3.50;0.90;;;;;;;20.22;52.91;101128.53;5090271;28;20028;-62
2022/06/09 07:06:50;;;;;;;3.95;1.35;;;;;;;20.23;52.99;101135.59;5108561;28;20488;-63
2022/06/09 07:09:15;;;;;;;3.85;1.20;;;;;;;20.22;52.93;101137.47;5107944;28;20031;-62
2022/06/09 07:11:40;;;;;;;2.30;1.10;;;;;;;20.22;52.92;101139.31;5124752;28;20027;-62
2022/06/09 07:14:06;;;;;;;2.83;1.30;;;;;;;20.24;53.25;101148.06;5111194;28;20024;-63
2022/06/09 07:16:33;;;;;;;1.77;0.90;;;;;;;20.24;53.04;101148.06;5108157;28;20024;-63
2022/06/09 07:18:58;;;;;;;2.15;0.95;;;;;;;20.24;53.31;101150.78;5108229;28;20116;-64
2022/06/09 07:21:23;;;;;;;3.40;1.45;;;;;;;20.22;53.18;101153.66;5108003;28;20436;-63
2022/06/09 07:23:48;;;;;;;2.33;1.35;;;;;;;20.25;53.11;101152.47;5108060;28;20028;-63
2022/06/09 07:26:14;;;;;;;1.50;0.90;;;;;;;20.26;53.02;101151.44;5107637;28;20054;-63
2022/06/09 07:28:39;;;;;;;3.45;1.00;;;;;;;20.26;53.09;101159.53;5107775;28;20024;-63
2022/06/09 07:31:05;;;;;;;2.63;1.00;;;;;;;20.28;52.95;101167.47;5089767;28;20035;-63
2022/06/09 07:33:34;;;;;;;4.82;1.20;;;;;;;20.27;53.15;101160.41;5107596;28;20034;-63
2022/06/09 07:35:59;;;;;;;3.20;0.98;;;;;;;20.23;53.28;101151.81;5107815;28;20102;-63
2022/06/09 07:38:26;;;;;;;2.47;0.98;;;;;;;20.30;53.07;101165.44;5107551;28;20032;-63
2022/06/09 07:40:53;;;;;;;2.10;0.88;;;;;;;20.31;52.95;101167.16;5107440;28;20496;-63
2022/06/09 07:43:19;;;;;;;2.47;1.08;;;;;;;20.29;53.44;101174.56;5117313;28;20038;-64
2022/06/09 07:45:45;;;;;;;3.03;0.90;;;;;;;20.32;53.11;101177.78;5128093;28;20055;-64
2022/06/09 07:48:11;;;;;;;2.53;1.20;;;;;;;20.34;52.94;101180.28;5127822;28;20046;-64
2022/06/09 07:50:37;;;;;;;2.50;1.20;;;;;;;20.35;52.84;101185.53;5127852;28;20020;-64
2022/06/09 07:53:02;;;;;;;3.33;1.10;;;;;;;20.36;53.47;101186.38;5127775;28;20034;-64
2022/06/09 07:55:28;;;;;;;3.05;0.90;;;;;;;20.29;53.44;101177.25;5127889;28;20031;-64
2022/06/09 07:57:53;;;;;;;2.22;1.10;;;;;;;20.37;53.20;101194.28;5127338;28;20024;-64
2022/06/09 08:00:21;;;;;;;3.63;1.00;;;;;;;20.39;52.99;101194.97;5127862;28;20032;-63
2022/06/09 08:02:47;;;;;;;1.10;0.80;;;;;;;20.39;53.25;101189.59;5127795;28;20023;-63
2022/06/09 08:05:14;;;;;;;2.15;1.23;;;;;;;20.41;52.95;101192.94;5127431;28;20066;-64
2022/06/09 08:07:40;;;;;;;3.45;1.20;;;;;;;20.40;52.89;101182.31;5109075;28;20031;-64
2022/06/09 08:10:08;;;;;;;2.72;1.13;;;;;;;20.36;52.79;101172.88;5123252;28;20023;-63
2022/06/09 08:12:34;;;;;;;1.60;0.82;;;;;;;20.44;53.17;101191.75;5106625;28;20054;-64
2022/06/09 08:14:59;;;;;;;2.47;1.10;;;;;;;20.46;53.06;101197.81;5107226;28;20055;-64
2022/06/09 08:17:25;;;;;;;2.50;0.88;;;;;;;20.47;52.97;101202.19;5107110;28;20027;-64
2022/06/09 08:19:51;;;;;;;1.88;1.00;;;;;;;20.50;53.11;101207.31;5107008;28;20020;-64
2022/06/09 08:22:16;;;;;;;1.67;1.38;;;;;;;20.51;52.78;101202.75;5106973;28;20081;-64
2022/06/09 08:24:42;;;;;;;1.38;0.85;;;;;;;20.52;52.61;101209.81;5106865;28;20028;-64
2022/06/09 08:27:07;;;;;;;4.38;1.40;;;;;;;20.54;52.85;101210.50;5106212;28;20039;-64
2022/06/09 08:29:33;;;;;;;2.03;0.90;;;;;;;20.54;52.54;101208.66;5106741;28;20020;-64
2022/06/09 08:31:58;;;;;;;1.42;0.77;;;;;;;20.53;52.54;101216.94;5106825;28;20095;-64
2022/06/09 08:34:24;;;;;;;2.25;1.00;;;;;;;20.55;52.46;101228.38;5106616;28;20027;-64
2022/06/09 08:36:50;;;;;;;1.42;0.73;;;;;;;20.56;52.71;101230.06;5106579;28;20079;-64
2022/06/09 08:39:15;;;;;;;1.50;0.80;;;;;;;20.56;52.71;101235.47;5106509;28;20050;-64
2022/06/09 08:41:53;;;;;;;2.17;1.00;;;;;;;20.55;52.66;101237.34;5105747;28;20050;-64
2022/06/09 08:44:34;;;;;;;3.33;1.00;;;;;;;20.54;52.31;101243.75;5106525;28;20163;-64
2022/06/09 08:47:12;;;;;;;2.47;0.90;;;;;;;20.54;52.38;101249.16;5088753;28;20055;-64
2022/06/09 08:49:57;;;;;;;2.22;0.90;;;;;;;20.54;52.70;101248.31;5088531;28;20025;-64
2022/06/09 08:52:43;;;;;;;3.20;1.45;;;;;;;20.55;52.40;101250.00;5088162;28;20091;-64
2022/06/09 08:55:24;;;;;;;2.85;1.00;;;;;;;20.55;52.68;101260.81;5088050;28;20425;-63
2022/06/09 08:57:51;;;;;;;2.05;0.77;;;;;;;20.54;52.64;101269.94;5105934;28;20032;-64
2022/06/09 09:00:21;;;;;;;2.30;0.85;;;;;;;20.53;52.49;101274.50;5088405;28;20047;-63
2022/06/09 09:02:49;;;;;;;2.60;1.00;;;;;;;20.52;52.59;101282.75;5106280;28;20028;-63
2022/06/09 09:05:17;;;;;;;2.15;0.95;;;;;;;20.51;52.79;101276.50;5106286;28;20032;-63
2022/06/09 09:07:46;;;;;;;2.10;0.90;;;;;;;20.52;52.52;101280.06;5106051;28;20096;-63
2022/06/09 09:10:17;;;;;;;2.22;0.93;;;;;;;20.52;52.85;101278.22;5088861;28;20024;-63
2022/06/09 09:13:10;;;;;;;2.22;0.90;;;;;;;20.53;52.47;101284.47;5114781;28;20027;-63
2022/06/09 09:15:40;;;;;;;1.60;1.05;;;;;;;20.54;52.71;101280.75;5126402;28;20019;-63
2022/06/09 09:18:38;;;;;;;2.78;1.13;;;;;;;20.55;52.69;101283.25;5106089;28;20024;-62
2022/06/09 09:21:25;;;;;;;1.95;0.90;;;;;;;20.57;52.27;101285.81;5107039;28;20028;-63
2022/06/09 09:23:58;;;;;;;2.95;1.00;;;;;;;20.57;52.58;101288.50;5126510;28;20031;-63
2022/06/09 09:26:45;;;;;;;1.67;1.00;;;;;;;20.56;52.64;101292.19;5125733;28;20463;-63
2022/06/09 09:29:16;;;;;;;4.03;1.10;;;;;;;20.59;52.73;101298.13;5125978;28;20023;-63
2022/06/09 09:31:41;;;;;;;3.13;1.55;;;;;;;20.60;52.41;101297.13;5126303;28;20020;-63
2022/06/09 09:34:14;;;;;;;2.58;0.90;;;;;;;20.61;52.49;101292.56;5126098;28;20023;-63
2022/06/09 09:36:43;;;;;;;3.10;0.90;;;;;;;20.55;52.00;101288.66;5107974;28;20057;-63
2022/06/09 09:39:09;;;;;;;2.35;0.80;;;;;;;20.64;52.38;101311.09;5125631;28;20024;-63
2022/06/09 09:41:38;;;;;;;2.78;0.85;;;;;;;20.61;52.29;101309.59;5124874;28;20047;-62
2022/06/09 09:44:21;;;;;;;1.83;0.93;;;;;;;20.65;52.31;101310.13;5106540;28;20028;-63
2022/06/09 09:46:50;;;;;;;2.50;0.90;;;;;;;20.60;52.33;101307.94;5105413;28;20476;-63
2022/06/09 09:49:23;;;;;;;;;;;;;;;20.67;52.26;101313.47;5105854;28;20028;-63
2022/06/09 09:51:49;;;;;;;3.13;1.00;;;;;;;20.68;52.10;101323.25;5087364;28;19918;-63
2022/06/09 09:54:28;;;;;;;1.60;0.80;;;;;;;20.68;51.92;101336.78;5070515;28;20028;-63
2022/06/09 09:57:08;;;;;;;2.58;0.80;;;;;;;20.68;52.26;101331.38;5104847;28;20024;-63
2022/06/09 09:59:46;;;;;;;2.50;1.50;;;;;;;20.67;51.87;101335.94;5105484;28;20040;-63
2022/06/09 10:11:00;;;;;;;4.05;1.00;;;;;;;20.68;52.04;101351.13;5100862;28;20076;-63
2022/06/09 10:13:32;;;;;;;3.42;1.00;;;;;;;20.66;52.11;101353.16;5090800;28;20027;-63
2022/06/09 10:15:58;;;;;;;3.95;1.20;;;;;;;20.69;51.81;101347.44;5105189;28;20028;-63
2022/06/09 10:18:23;;;;;;;1.77;1.10;;;;;;;20.70;51.95;101350.97;5087052;28;20024;-62
2022/06/09 10:20:51;;;;;;;1.95;0.90;;;;;;;20.71;52.12;101349.94;5105038;28;20048;-63
2022/06/09 10:23:24;;;;;;;2.65;0.90;;;;;;;20.72;51.98;101362.44;5105043;28;20016;-63
2022/06/09 10:26:15;;;;;;;1.02;0.70;;;;;;;20.72;51.81;101366.00;5087049;28;20024;-64
2022/06/09 10:28:59;;;;;;;2.70;0.98;;;;;;;20.75;52.03;101374.78;5105318;28;20107;-63
2022/06/09 10:31:30;;;;;;;2.42;1.10;;;;;;;20.74;51.83;101359.59;5105927;28;20028;-63
2022/06/09 10:34:33;;;;;;;3.08;0.93;;;;;;;20.76;51.89;101379.16;5109218;28;20024;-63
2022/06/09 10:37:11;;;;;;;1.98;0.93;;;;;;;20.78;51.81;101383.41;5109233;28;20016;-63
2022/06/09 10:39:52;;;;;;;2.88;0.95;;;;;;;20.78;51.97;101391.50;5090741;28;20012;-63
2022/06/09 10:42:23;;;;;;;4.60;1.20;;;;;;;20.81;51.59;101390.31;5090204;28;20043;-63
2022/06/09 10:45:10;;;;;;;1.77;0.80;;;;;;;20.83;51.85;101391.00;5090940;28;20059;-64
2022/06/09 10:56:30;;;;;;;1.88;1.08;;;;;;;20.87;51.60;101401.31;5092843;28;20043;-64
2022/06/09 10:59:17;;;;;;;2.10;0.85;;;;;;;20.89;51.53;101407.38;5090614;28;20091;-64
2022/06/09 11:01:42;;;;;;;1.30;0.70;;;;;;;20.82;51.53;101395.56;5090451;28;20016;-64
2022/06/09 11:04:13;;;;;;;3.22;1.00;;;;;;;20.91;51.88;101416.16;5090180;28;20027;-64
2022/06/09 11:07:16;;;;;;;1.55;0.75;;;;;;;20.92;51.38;101414.31;5108740;28;20476;-64
2022/06/09 11:10:03;;;;;;;1.15;0.50;;;;;;;20.91;51.47;101421.56;5073405;28;20016;-64
2022/06/09 11:13:06;;;;;;;1.67;0.93;;;;;;;20.95;51.82;101417.50;5098691;28;20024;-64
2022/06/09 11:15:46;;;;;;;2.60;0.88;;;;;;;20.96;51.67;101427.31;5108437;28;20031;-64
2022/06/09 11:18:20;;;;;;;1.35;0.75;;;;;;;20.98;51.42;101429.81;5108262;28;20024;-64
2022/06/09 11:21:08;;;;;;;1.58;0.70;;;;;;;21.01;51.67;101424.09;5090002;28;20058;-64
2022/06/09 11:23:59;;;;;;;3.15;1.00;;;;;;;21.01;51.41;101428.66;5108343;28;20027;-64
2022/06/09 11:26:50;;;;;;;2.05;0.88;;;;;;;21.03;51.53;101432.91;5089601;28;20054;-64
2022/06/09 11:29:53;;;;;;;2.35;0.70;;;;;;;21.04;51.67;101439.97;5090193;28;20028;-64
2022/06/09 11:32:31;;;;;;;1.35;0.80;;;;;;;21.04;51.57;101433.72;5108019;28;20183;-64
2022/06/09 11:35:14;;;;;;;2.28;1.23;;;;;;;21.05;51.26;101440.81;5108078;28;20105;-63
2022/06/09 11:38:25;;;;;;;1.55;0.90;;;;;;;21.06;51.41;101440.63;5089817;28;20028;-64
2022/06/09 11:41:01;;;;;;;2.88;0.70;;;;;;;21.06;51.56;101437.94;5107501;28;20052;-64
2022/06/09 11:43:41;;;;;;;1.17;0.70;;;;;;;21.08;51.29;101438.63;5125397;27;20023;-64
2022/06/09 11:46:17;;;;;;;2.03;1.08;;;;;;;21.07;51.35;101445.06;5128068;28;20110;-64
2022/06/09 11:48:48;;;;;;;2.10;0.77;;;;;;;21.06;51.45;101454.16;5109867;28;20038;-64
2022/06/09 11:51:17;;;;;;;3.13;1.08;;;;;;;21.08;51.68;101460.25;5109595;28;20023;-64
2022/06/09 11:53:49;;;;;;;1.90;0.70;;;;;;;21.09;51.62;101459.22;5109932;28;20024;-64
2022/06/09 11:56:43;;;;;;;2.45;1.10;;;;;;;21.10;51.60;101466.31;5127812;28;20412;-63
2022/06/09 11:59:11;;;;;;;4.28;1.10;;;;;;;21.10;51.59;101474.44;5127851;28;20024;-64
2022/06/09 12:01:39;;;;;;;3.75;1.10;;;;;;;21.10;51.34;101474.44;5109379;28;20033;-64
2022/06/09 12:04:14;;;;;;;3.13;0.85;;;;;;;21.10;51.48;101474.44;5127783;28;20024;-64
2022/06/09 12:07:03;;;;;;;3.50;0.93;;;;;;;21.10;51.55;101468.19;5127677;28;20027;-64